Terminal Aerodrome Forecast
Issued by NWS

Home | Current Version | Previous Version | Text Only | Print | Product List | Glossary On
Versions: 1 2 3 4 5 6 7 8 9 10 11 12 13 14 15 16 17
428
FTUS43 KICT 171038 AAA
TAFSLN
TAF AMD
KSLN 171038Z 1711/1806 19015G22KT 6SM BR BKN015 OVC025
      TEMPO 1711/1713 OVC008
     FM171400 20013KT P6SM SCT025 BKN060
     FM180200 29006KT P6SM SCT200
     FM180500 34011KT P6SM BKN150=

USA.gov is the U.S. government's official web portal to all federal, state and local government web resources and services.